Time;durP1;ratioP1;P1;durP2;ratioP2;P2;SDS_P1;SDS_P2;PMS_P1;PMS_P2;Temp;Humidity;BMP_temperature;BMP_pressure;BME280_temperature;BME280_humidity;BME280_pressure;Samples;Min_cycle;Max_cycle;Signal;HPM_P1;HPM_P2
2022/12/02 00:00:51;;;;;;;9.90;7.18;;;19.40;54.70;;;;;;6266558;28;20036;-70
2022/12/02 00:03:52;;;;;;;9.13;7.28;;;19.40;54.70;;;;;;6268518;28;20021;-69
2022/12/02 00:06:54;;;;;;;10.38;7.15;;;19.40;54.70;;;;;;6268516;28;20575;-69
2022/12/02 00:09:55;;;;;;;8.65;6.72;;;19.40;54.70;;;;;;6267203;28;20150;-70
2022/12/02 00:13:18;;;;;;;8.45;6.60;;;19.40;54.80;;;;;;6268617;28;20143;-69
2022/12/02 00:16:21;;;;;;;8.52;6.25;;;19.40;54.70;;;;;;6242154;28;20108;-69
2022/12/02 00:19:22;;;;;;;8.98;6.75;;;19.40;54.70;;;;;;6254857;28;20654;-70
2022/12/02 00:22:23;;;;;;;8.73;6.80;;;19.40;54.70;;;;;;6268029;28;20052;-69
2022/12/02 00:25:23;;;;;;;9.02;6.78;;;19.40;54.80;;;;;;6267345;28;20024;-71
2022/12/02 00:28:24;;;;;;;8.25;6.47;;;19.40;54.80;;;;;;6267940;28;20541;-69
2022/12/02 00:31:25;;;;;;;8.38;6.10;;;19.40;54.80;;;;;;6268518;28;20062;-69
2022/12/02 00:34:25;;;;;;;8.98;6.32;;;19.40;54.80;;;;;;6267772;28;20033;-70
2022/12/02 00:37:27;;;;;;;7.93;6.00;;;19.40;54.80;;;;;;6266794;28;20032;-70
2022/12/02 00:40:27;;;;;;;10.52;7.10;;;19.40;55.50;;;;;;6268075;28;20025;-69
2022/12/02 00:46:47;;;;;;;8.30;6.28;;;19.40;54.80;;;;;;6267961;28;20466;-70
2022/12/02 00:49:48;;;;;;;7.95;6.07;;;19.40;54.80;;;;;;6266524;28;20074;-69
2022/12/02 00:52:49;;;;;;;7.60;5.95;;;19.40;54.80;;;;;;6267890;28;20029;-69
2022/12/02 00:55:50;;;;;;;8.15;6.43;;;19.40;54.80;;;;;;6267509;28;20421;-69
2022/12/02 00:58:51;;;;;;;7.03;5.50;;;19.40;54.80;;;;;;6267628;28;20090;-69
2022/12/02 01:01:51;;;;;;;8.45;6.75;;;19.40;54.80;;;;;;6266393;28;20029;-70
2022/12/02 01:04:52;;;;;;;7.80;6.00;;;19.40;54.80;;;;;;6267654;28;20481;-69
2022/12/02 01:07:52;;;;;;;8.23;6.13;;;19.40;54.80;;;;;;6267652;28;20029;-69
2022/12/02 01:10:54;;;;;;;8.13;6.00;;;19.40;54.80;;;;;;6269054;28;20090;-70
2022/12/02 01:13:55;;;;;;;7.63;5.93;;;19.40;54.80;;;;;;6272691;28;20044;-69
2022/12/02 01:16:56;;;;;;;8.55;6.40;;;19.40;54.80;;;;;;6272472;28;20449;-70
2022/12/02 01:19:56;;;;;;;8.15;5.93;;;19.40;54.80;;;;;;6271274;28;20496;-70
2022/12/02 01:22:58;;;;;;;8.77;6.07;;;19.40;54.80;;;;;;6272838;28;20017;-69
2022/12/02 01:25:58;;;;;;;7.43;5.90;;;19.40;54.90;;;;;;6272352;28;20060;-70
2022/12/02 01:28:59;;;;;;;7.72;6.18;;;19.40;54.80;;;;;;6272039;28;20441;-70
2022/12/02 01:32:00;;;;;;;7.20;5.60;;;19.40;54.80;;;;;;6272131;28;20528;-69
2022/12/02 01:35:01;;;;;;;8.30;6.28;;;19.40;54.80;;;;;;6270737;28;20056;-71
2022/12/02 01:38:01;;;;;;;8.18;6.15;;;19.40;54.80;;;;;;6270804;28;20287;-70
2022/12/02 01:41:03;;;;;;;8.48;6.03;;;19.40;54.80;;;;;;6272066;28;20490;-69
2022/12/02 01:44:05;;;;;;;7.28;5.82;;;19.40;54.80;;;;;;6270503;28;20021;-69
2022/12/02 01:47:05;;;;;;;7.68;5.75;;;19.40;54.80;;;;;;6272129;28;20482;-69
2022/12/02 01:50:09;;;;;;;7.20;5.53;;;19.40;54.90;;;;;;6270573;28;20021;-69
2022/12/02 01:53:10;;;;;;;8.50;6.43;;;19.40;54.80;;;;;;6271989;28;20658;-69
2022/12/02 01:56:11;;;;;;;7.97;6.18;;;19.40;54.80;;;;;;6271574;28;20025;-70
2022/12/02 01:59:14;;;;;;;7.47;5.72;;;19.40;54.90;;;;;;6272142;28;20032;-70
2022/12/02 02:02:27;;;;;;;8.93;6.43;;;19.40;54.80;;;;;;6270255;28;20431;-69
2022/12/02 02:05:30;;;;;;;8.32;6.10;;;19.40;54.90;;;;;;6270244;28;20450;-69
2022/12/02 02:08:32;;;;;;;8.25;6.07;;;19.40;54.90;;;;;;6270072;28;20386;-69
2022/12/02 02:11:34;;;;;;;8.10;6.57;;;19.40;54.90;;;;;;6269873;28;20033;-69
2022/12/02 02:14:34;;;;;;;7.15;5.78;;;19.40;54.80;;;;;;6271464;28;20025;-70
2022/12/02 02:17:35;;;;;;;8.65;6.30;;;19.40;54.90;;;;;;6270850;28;20032;-69
2022/12/02 02:20:39;;;;;;;8.18;5.90;;;19.40;54.80;;;;;;6271264;28;20017;-69
2022/12/02 02:23:40;;;;;;;8.68;6.20;;;19.40;54.90;;;;;;6269737;28;20152;-70
2022/12/02 02:26:41;;;;;;;8.38;6.05;;;19.40;54.90;;;;;;6269782;28;20025;-70
2022/12/02 02:29:41;;;;;;;8.95;6.13;;;19.40;54.90;;;;;;6270269;28;20433;-69
2022/12/02 02:32:42;;;;;;;8.25;6.43;;;19.40;54.90;;;;;;6270840;28;20096;-69
2022/12/02 02:35:44;;;;;;;7.35;6.05;;;19.40;54.90;;;;;;6270147;28;20079;-70
2022/12/02 02:38:45;;;;;;;6.55;5.25;;;19.40;54.90;;;;;;6270825;28;20022;-70
2022/12/02 02:41:46;;;;;;;7.40;5.70;;;19.40;54.90;;;;;;6270220;28;20032;-69
2022/12/02 02:44:47;;;;;;;7.78;5.93;;;19.40;54.90;;;;;;6269646;28;20028;-69
2022/12/02 02:47:49;;;;;;;8.02;6.03;;;19.40;54.90;;;;;;6270744;28;20469;-69
2022/12/02 02:50:50;;;;;;;8.45;6.07;;;19.40;54.90;;;;;;6270799;28;20678;-69
2022/12/02 02:53:51;;;;;;;7.13;5.18;;;19.40;54.90;;;;;;6269974;28;20053;-69
2022/12/02 02:56:52;;;;;;;7.30;5.82;;;19.40;54.90;;;;;;6270043;28;20036;-69
2022/12/02 02:59:55;;;;;;;8.10;6.05;;;19.30;54.80;;;;;;6270690;28;20029;-69
2022/12/02 03:02:56;;;;;;;6.30;5.30;;;19.40;54.90;;;;;;6269470;28;20025;-70
2022/12/02 03:06:00;;;;;;;7.95;5.85;;;19.40;54.90;;;;;;6270566;28;20029;-70
2022/12/02 03:09:03;;;;;;;6.40;5.38;;;19.40;55.00;;;;;;6270275;28;20029;-69
2022/12/02 03:12:04;;;;;;;7.32;5.50;;;19.40;54.90;;;;;;6269880;28;20017;-70
2022/12/02 03:15:07;;;;;;;7.38;5.45;;;19.40;54.90;;;;;;6269906;28;20091;-69
2022/12/02 03:18:09;;;;;;;7.13;5.75;;;19.40;54.90;;;;;;6269849;28;20389;-70
2022/12/02 03:21:11;;;;;;;5.70;5.00;;;19.40;54.90;;;;;;6269864;28;20064;-69
2022/12/02 03:24:13;;;;;;;7.50;5.65;;;19.40;54.90;;;;;;6269724;28;20022;-69
2022/12/02 03:27:14;;;;;;;6.80;5.30;;;19.40;54.90;;;;;;6269604;28;20021;-69
2022/12/02 03:30:15;;;;;;;6.50;5.25;;;19.40;54.90;;;;;;6269442;28;20029;-70
2022/12/02 03:33:16;;;;;;;7.65;5.80;;;19.40;55.00;;;;;;6269283;28;20618;-69
2022/12/02 03:36:18;;;;;;;7.38;5.55;;;19.40;55.00;;;;;;6268575;28;20029;-70
2022/12/02 03:39:19;;;;;;;7.00;5.35;;;19.30;55.00;;;;;;6269450;28;20025;-69
2022/12/02 03:42:20;;;;;;;7.47;5.38;;;19.40;55.00;;;;;;6269087;28;20029;-69
2022/12/02 03:45:21;;;;;;;7.07;5.28;;;19.40;55.00;;;;;;6269324;28;20620;-70
2022/12/02 03:48:24;;;;;;;6.45;5.20;;;19.40;55.00;;;;;;6268959;28;20111;-70
2022/12/02 03:51:25;;;;;;;7.32;5.45;;;19.40;55.00;;;;;;6268994;28;20442;-70
2022/12/02 03:54:26;;;;;;;7.10;5.45;;;19.40;55.00;;;;;;6268829;28;20107;-69
2022/12/02 03:57:30;;;;;;;7.47;5.72;;;19.40;55.00;;;;;;6267569;28;20025;-69
2022/12/02 04:00:32;;;;;;;6.68;5.38;;;19.40;55.00;;;;;;6268962;28;20100;-69
2022/12/02 04:03:33;;;;;;;8.02;5.93;;;19.40;55.00;;;;;;6268496;28;20025;-69
2022/12/02 04:06:34;;;;;;;6.35;5.13;;;19.40;55.00;;;;;;6268778;28;20025;-70
2022/12/02 04:09:35;;;;;;;7.88;5.72;;;19.40;55.00;;;;;;6267142;28;20031;-69
2022/12/02 04:12:36;;;;;;;7.28;5.47;;;19.30;54.90;;;;;;6267544;28;20021;-69
2022/12/02 04:15:37;;;;;;;6.75;5.15;;;19.40;55.00;;;;;;6267133;28;20470;-70
2022/12/02 04:18:38;;;;;;;7.20;5.10;;;19.40;55.00;;;;;;6268527;28;20029;-69
2022/12/02 04:21:38;;;;;;;6.88;5.32;;;19.40;55.00;;;;;;6268282;28;20066;-69
2022/12/02 04:24:39;;;;;;;6.85;5.60;;;19.40;55.00;;;;;;6267545;28;20362;-69
2022/12/02 04:27:40;;;;;;;7.55;5.50;;;19.40;55.00;;;;;;6268547;28;20055;-69
2022/12/02 04:30:47;;;;;;;6.43;5.10;;;19.40;55.00;;;;;;6267154;28;20025;-70
2022/12/02 04:34:23;;;;;;;6.65;5.00;;;19.40;55.00;;;;;;6269335;28;20025;-71
2022/12/02 04:37:48;;;;;;;7.55;5.70;;;19.40;55.00;;;;;;6267632;28;20020;-71
2022/12/02 04:40:58;;;;;;;6.97;4.85;;;19.40;55.00;;;;;;6266174;28;20028;-71
2022/12/02 04:44:17;;;;;;;7.63;5.30;;;19.40;55.10;;;;;;6268481;28;20040;-71
2022/12/02 04:47:30;;;;;;;6.35;5.22;;;19.40;55.00;;;;;;6267128;28;20159;-71
2022/12/02 04:50:33;;;;;;;6.22;5.13;;;19.40;55.00;;;;;;6268708;28;20478;-71
2022/12/02 04:53:39;;;;;;;6.80;5.20;;;19.40;55.10;;;;;;6267984;28;20486;-71
2022/12/02 04:56:46;;;;;;;6.50;4.75;;;19.40;55.10;;;;;;6267157;28;20053;-70
2022/12/02 05:00:44;;;;;;;7.15;5.53;;;19.40;55.00;;;;;;6267252;28;20029;-71
2022/12/02 05:04:29;;;;;;;5.97;4.68;;;19.40;55.10;;;;;;6268102;28;20533;-71
2022/12/02 05:07:52;;;;;;;5.80;4.35;;;19.30;55.00;;;;;;6266169;28;20382;-71
2022/12/02 05:10:58;;;;;;;5.72;4.68;;;19.40;55.10;;;;;;6266707;28;20556;-71
2022/12/02 05:14:04;;;;;;;6.68;5.20;;;19.30;55.00;;;;;;6266671;28;20445;-71
2022/12/02 05:17:07;;;;;;;7.32;5.43;;;19.30;55.00;;;;;;6268310;28;20022;-71
2022/12/02 05:20:21;;;;;;;6.38;4.88;;;19.40;55.00;;;;;;6268234;28;20021;-71
2022/12/02 05:23:53;;;;;;;5.85;4.70;;;19.40;55.00;;;;;;6266713;28;20021;-71
2022/12/02 05:27:55;;;;;;;6.60;5.20;;;19.40;55.00;;;;;;6266420;28;20393;-71
2022/12/02 05:31:11;;;;;;;6.90;4.78;;;19.40;55.00;;;;;;6265139;28;20032;-71
2022/12/02 05:34:21;;;;;;;6.07;4.63;;;19.40;55.00;;;;;;6267982;28;20017;-71
2022/12/02 05:37:31;;;;;;;5.53;4.28;;;19.40;55.00;;;;;;6266677;28;20029;-71
2022/12/02 05:41:45;;;;;;;5.78;4.50;;;19.40;55.00;;;;;;6267905;28;20092;-72
2022/12/02 05:45:40;;;;;;;5.93;4.68;;;19.40;55.00;;;;;;6266868;28;20029;-71
2022/12/02 05:48:43;;;;;;;5.90;4.57;;;19.40;55.00;;;;;;6264353;28;20064;-71
2022/12/02 05:51:58;;;;;;;5.28;4.28;;;19.40;55.00;;;;;;6266255;28;20120;-70
2022/12/02 05:55:13;;;;;;;7.10;5.00;;;19.40;55.00;;;;;;6267289;28;20248;-72
2022/12/02 05:58:19;;;;;;;7.32;4.93;;;19.40;55.00;;;;;;6269683;28;20021;-71
2022/12/02 06:01:41;;;;;;;6.30;4.80;;;19.40;55.00;;;;;;6272086;28;20029;-71
2022/12/02 06:04:46;;;;;;;5.60;4.40;;;19.40;55.00;;;;;;6271549;28;20025;-71
2022/12/02 06:08:35;;;;;;;5.82;4.60;;;19.40;55.00;;;;;;6272262;28;20669;-71
2022/12/02 06:11:40;;;;;;;5.10;4.18;;;19.40;55.00;;;;;;6281892;28;20033;-71
2022/12/02 06:15:38;;;;;;;5.38;4.57;;;19.40;55.00;;;;;;6269668;28;20627;-71
2022/12/02 06:19:25;;;;;;;5.82;4.32;;;19.40;54.90;;;;;;6272171;28;20044;-72
2022/12/02 06:22:37;;;;;;;6.55;4.88;;;19.40;54.90;;;;;;6271526;28;20056;-73
2022/12/02 06:25:37;;;;;;;5.03;4.25;;;19.40;54.90;;;;;;6277610;28;20382;-72
2022/12/02 06:28:41;;;;;;;4.97;3.95;;;19.40;54.90;;;;;;6296475;28;20028;-72
2022/12/02 06:31:42;;;;;;;5.80;4.20;;;19.40;55.00;;;;;;6283810;28;20028;-71
2022/12/02 06:34:44;;;;;;;5.78;4.53;;;19.40;54.90;;;;;;6250651;28;20581;-72
2022/12/02 06:37:45;;;;;;;6.68;4.22;;;19.40;54.90;;;;;;6285522;28;20017;-72
2022/12/02 06:40:46;;;;;;;5.03;4.25;;;19.40;54.90;;;;;;6294457;28;20032;-71
2022/12/02 06:47:31;;;;;;;5.75;4.30;;;19.40;54.90;;;;;;6271156;28;20021;-73
2022/12/02 06:50:35;;;;;;;4.70;3.70;;;19.40;54.80;;;;;;6270682;28;20075;-72
2022/12/02 06:53:39;;;;;;;5.38;4.28;;;19.40;54.80;;;;;;6269909;28;20440;-72
2022/12/02 06:56:40;;;;;;;6.10;4.53;;;19.50;54.90;;;;;;6263966;28;20234;-72
2022/12/02 06:59:42;;;;;;;5.05;3.70;;;19.50;54.80;;;;;;6268620;28;20056;-72
2022/12/02 07:02:43;;;;;;;5.57;4.20;;;19.50;54.80;;;;;;6262188;28;20020;-73
2022/12/02 07:05:44;;;;;;;4.32;3.72;;;19.50;54.80;;;;;;6271006;28;20083;-73
2022/12/02 07:08:45;;;;;;;6.03;4.07;;;19.50;54.80;;;;;;6326173;28;20024;-72
2022/12/02 07:11:52;;;;;;;4.68;3.78;;;19.50;54.80;;;;;;6285574;28;20370;-72
2022/12/02 07:14:56;;;;;;;6.05;4.22;;;19.50;54.80;;;;;;6272554;28;20490;-72
2022/12/02 07:18:09;;;;;;;4.70;3.85;;;19.50;54.80;;;;;;6260744;28;20053;-72
2022/12/02 07:21:13;;;;;;;4.63;3.85;;;19.50;54.80;;;;;;6270570;28;20040;-72
2022/12/02 07:24:17;;;;;;;6.43;4.22;;;19.50;54.90;;;;;;6291851;28;20017;-72
2022/12/02 07:27:25;;;;;;;6.15;3.92;;;19.50;54.90;;;;;;6270394;28;20048;-72
2022/12/02 07:30:30;;;;;;;5.90;4.13;;;19.50;54.90;;;;;;6270581;28;20017;-75
2022/12/02 07:33:30;;;;;;;4.53;3.67;;;19.50;54.90;;;;;;6271568;28;20029;-73
2022/12/02 07:36:31;;;;;;;5.70;3.92;;;19.50;54.90;;;;;;6270648;28;20029;-74
2022/12/02 07:39:31;;;;;;;6.00;4.32;;;19.50;54.90;;;;;;6291712;28;20024;-72
2022/12/02 07:42:32;;;;;;;5.57;4.05;;;19.50;54.90;;;;;;6282250;28;20024;-73
2022/12/02 07:45:33;;;;;;;4.70;3.97;;;19.50;54.90;;;;;;6296256;28;20513;-73
2022/12/02 07:48:34;;;;;;;5.28;3.78;;;19.50;54.90;;;;;;6283230;28;20086;-73
2022/12/02 07:51:35;;;;;;;4.93;4.00;;;19.50;54.90;;;;;;6271250;28;20045;-73
2022/12/02 07:54:36;;;;;;;5.70;3.88;;;19.50;54.90;;;;;;6279411;28;20041;-73
2022/12/02 07:57:38;;;;;;;5.20;3.97;;;19.50;55.00;;;;;;6274808;28;20017;-73
2022/12/02 08:00:38;;;;;;;4.38;3.55;;;19.50;55.00;;;;;;6296323;28;20021;-73
2022/12/02 08:03:39;;;;;;;10.57;3.65;;;19.50;55.00;;;;;;6294945;28;20023;-73
2022/12/02 08:06:39;;;;;;;6.10;3.83;;;19.50;55.00;;;;;;6295700;28;20488;-73
2022/12/02 08:09:40;;;;;;;4.90;4.00;;;19.60;55.80;;;;;;6291059;28;20053;-73
2022/12/02 08:12:41;;;;;;;5.25;4.18;;;19.60;55.10;;;;;;6272304;28;20083;-72
2022/12/02 08:15:42;;;;;;;4.70;3.70;;;19.50;55.00;;;;;;6278182;28;20438;-72
2022/12/02 08:18:43;;;;;;;5.80;4.13;;;19.50;55.00;;;;;;6270577;28;20099;-73
2022/12/02 08:21:44;;;;;;;4.63;3.85;;;19.50;55.00;;;;;;6267955;28;20028;-73
2022/12/02 08:24:44;;;;;;;6.32;3.90;;;19.60;55.10;;;;;;6268971;28;20071;-73
2022/12/02 08:27:45;;;;;;;5.15;3.95;;;19.60;55.10;;;;;;6270470;28;20029;-73
2022/12/02 08:30:45;;;;;;;9.38;3.88;;;19.60;55.10;;;;;;6268946;28;20497;-73
2022/12/02 08:33:46;;;;;;;4.90;3.92;;;19.50;55.10;;;;;;6278469;28;20029;-74
2022/12/02 08:36:47;;;;;;;5.47;3.83;;;19.60;55.20;;;;;;6295091;28;20027;-74
2022/12/02 08:39:47;;;;;;;5.45;3.65;;;19.60;55.20;;;;;;6277971;28;20394;-73
2022/12/02 08:42:48;;;;;;;7.68;3.67;;;19.60;55.20;;;;;;6268876;28;20106;-74
2022/12/02 08:45:49;;;;;;;7.45;3.70;;;19.60;55.90;;;;;;6293848;28;20434;-73
2022/12/02 08:48:49;;;;;;;5.15;3.60;;;19.60;55.20;;;;;;6285384;28;20025;-73
2022/12/02 08:51:50;;;;;;;6.47;3.80;;;19.60;55.20;;;;;;6268820;28;20115;-72
2022/12/02 08:54:52;;;;;;;4.40;3.58;;;19.60;55.30;;;;;;6285606;28;20398;-72
2022/12/02 08:57:52;;;;;;;4.72;3.50;;;19.60;55.30;;;;;;6284891;28;20543;-72
2022/12/02 09:00:53;;;;;;;7.57;3.90;;;19.60;55.30;;;;;;6293229;28;20024;-71
2022/12/02 09:03:54;;;;;;;7.00;3.70;;;19.60;55.30;;;;;;6283711;28;20049;-71
2022/12/02 09:06:54;;;;;;;6.53;3.83;;;19.60;55.30;;;;;;6292802;28;20029;-71
2022/12/02 09:09:55;;;;;;;4.90;3.33;;;19.60;55.30;;;;;;6288702;28;20021;-71
2022/12/02 09:12:56;;;;;;;5.15;3.38;;;19.60;55.30;;;;;;6269535;28;20021;-71
2022/12/02 09:15:57;;;;;;;6.63;3.55;;;19.60;55.30;;;;;;6291631;28;20035;-71
2022/12/02 09:18:57;;;;;;;6.60;3.58;;;19.60;55.40;;;;;;6276556;28;20029;-71
2022/12/02 09:21:58;;;;;;;9.77;3.45;;;19.60;55.40;;;;;;6269545;28;20151;-71
2022/12/02 09:24:59;;;;;;;5.20;3.83;;;19.60;55.60;;;;;;6272063;28;20130;-71
2022/12/02 09:27:59;;;;;;;5.82;3.78;;;19.60;55.40;;;;;;6269088;28;20036;-71
2022/12/02 09:31:00;;;;;;;7.10;3.83;;;19.60;55.40;;;;;;6280055;28;20048;-73
2022/12/02 09:34:01;;;;;;;8.50;3.78;;;19.60;55.50;;;;;;6299307;28;20056;-72
2022/12/02 09:37:01;;;;;;;7.57;4.03;;;19.60;55.40;;;;;;6298622;28;20440;-72
2022/12/02 09:40:03;;;;;;;6.38;4.07;;;19.60;55.40;;;;;;6277398;28;20453;-72
2022/12/02 09:43:04;;;;;;;10.02;3.72;;;19.60;55.40;;;;;;6274199;28;20017;-72
2022/12/02 09:46:05;;;;;;;5.57;3.60;;;19.60;55.30;;;;;;6274560;28;20063;-72
2022/12/02 09:49:06;;;;;;;8.35;4.03;;;19.60;55.40;;;;;;6275542;28;20021;-73
2022/12/02 09:52:14;;;;;;;10.38;4.13;;;19.60;55.40;;;;;;6275763;28;20093;-73
2022/12/02 09:55:17;;;;;;;11.05;4.07;;;19.60;55.30;;;;;;6275262;28;20044;-72
2022/12/02 09:58:20;;;;;;;6.72;4.10;;;19.60;55.30;;;;;;6274361;28;20020;-72
2022/12/02 10:01:24;;;;;;;4.22;3.40;;;19.60;56.00;;;;;;6274275;28;20037;-72
2022/12/02 10:04:25;;;;;;;9.95;4.13;;;19.60;55.30;;;;;;6275426;28;20442;-72
2022/12/02 10:07:27;;;;;;;7.63;4.50;;;19.60;55.30;;;;;;6274110;28;20028;-73
2022/12/02 10:10:34;;;;;;;4.80;3.63;;;19.60;55.20;;;;;;6275255;28;20474;-72
2022/12/02 10:13:39;;;;;;;7.38;4.28;;;19.60;55.20;;;;;;6274194;28;20017;-72
2022/12/02 10:16:40;;;;;;;4.53;3.72;;;19.60;55.20;;;;;;6273899;28;20368;-72
2022/12/02 10:19:43;;;;;;;5.45;3.30;;;19.60;55.20;;;;;;6274042;28;20025;-72
2022/12/02 10:23:04;;;;;;;5.95;3.67;;;19.60;55.20;;;;;;6275063;28;20021;-73
2022/12/02 10:26:13;;;;;;;6.68;4.10;;;19.60;55.10;;;;;;6273429;28;20021;-72
2022/12/02 10:29:18;;;;;;;6.57;3.58;;;19.60;55.20;;;;;;6273763;28;20055;-72
2022/12/02 10:32:22;;;;;;;7.10;4.07;;;19.60;55.10;;;;;;6274462;28;20074;-72
2022/12/02 10:35:24;;;;;;;3.37;2.77;;;19.60;55.10;;;;;;6274886;28;20432;-72
2022/12/02 10:38:29;;;;;;;5.70;3.55;;;19.60;55.00;;;;;;6273536;28;20385;-72
2022/12/02 10:41:30;;;;;;;;;;;19.60;55.10;;;;;;6275103;28;20033;-72
2022/12/02 10:44:33;;;;;;;6.00;3.95;;;19.60;55.00;;;;;;6273823;28;19908;-72
2022/12/02 10:47:34;;;;;;;6.80;4.30;;;19.60;55.00;;;;;;6272894;28;20025;-72
2022/12/02 10:50:35;;;;;;;6.43;3.50;;;19.60;55.00;;;;;;6276701;28;20062;-74
2022/12/02 10:53:35;;;;;;;5.22;3.90;;;19.60;55.00;;;;;;6297166;28;20029;-73
2022/12/02 10:56:36;;;;;;;6.00;3.78;;;19.60;55.00;;;;;;6297290;28;20483;-72
2022/12/02 10:59:37;;;;;;;7.40;3.75;;;19.60;54.90;;;;;;6297210;28;20024;-72
2022/12/02 11:02:45;;;;;;;4.90;3.55;;;19.60;54.90;;;;;;6298478;28;20031;-72
2022/12/02 11:05:45;;;;;;;5.43;3.50;;;19.60;54.90;;;;;;6298179;28;20025;-72
2022/12/02 11:08:48;;;;;;;6.05;3.63;;;19.60;54.90;;;;;;6298566;28;20036;-72
2022/12/02 11:11:49;;;;;;;5.88;4.00;;;19.60;54.90;;;;;;6296783;28;20028;-72
2022/12/02 11:14:53;;;;;;;6.47;3.95;;;19.60;54.90;;;;;;6298098;28;20028;-72
2022/12/02 11:17:56;;;;;;;5.78;3.42;;;19.60;54.90;;;;;;6281935;28;20040;-72
2022/12/02 11:21:05;;;;;;;5.43;3.55;;;19.60;54.90;;;;;;6271973;28;20024;-72
2022/12/02 11:24:21;;;;;;;5.85;3.70;;;19.60;54.90;;;;;;6247296;28;20467;-71
2022/12/02 11:27:22;;;;;;;11.90;4.25;;;19.60;54.90;;;;;;6248017;28;20053;-72
2022/12/02 11:30:23;;;;;;;7.53;3.92;;;19.70;54.90;;;;;;6247115;28;20044;-70
2022/12/02 11:33:42;;;;;;;8.88;4.32;;;19.70;54.80;;;;;;6246870;28;20032;-72
2022/12/02 11:36:43;;;;;;;7.32;4.35;;;19.70;54.70;;;;;;6248068;28;20026;-72
2022/12/02 11:39:43;;;;;;;11.73;3.67;;;19.70;54.60;;;;;;6246287;28;20080;-71
2022/12/02 11:42:44;;;;;;;8.45;3.33;;;19.70;55.20;;;;;;6247940;28;20048;-72
2022/12/02 11:45:45;;;;;;;6.05;3.85;;;19.80;54.60;;;;;;6247607;28;20030;-72
2022/12/02 11:48:51;;;;;;;5.80;3.78;;;19.70;54.60;;;;;;6246498;28;20025;-72
2022/12/02 11:52:02;;;;;;;5.47;4.15;;;19.70;54.70;;;;;;6246327;28;20029;-72
2022/12/02 11:55:17;;;;;;;5.55;3.78;;;19.70;54.80;;;;;;6245186;28;20038;-72
2022/12/02 11:58:24;;;;;;;;;;;19.70;54.80;;;;;;6248071;28;20494;-72
2022/12/02 12:01:25;;;;;;;7.05;3.85;;;19.70;54.90;;;;;;6245042;28;19909;-71
2022/12/02 12:04:28;;;;;;;5.15;3.78;;;19.70;54.90;;;;;;6247176;28;20096;-71
2022/12/02 12:07:47;;;;;;;10.45;4.57;;;19.70;54.90;;;;;;6247547;28;20032;-72
2022/12/02 12:11:18;;;;;;;6.35;4.03;;;19.70;55.00;;;;;;6247017;28;20379;-72
2022/12/02 12:14:22;;;;;;;6.10;4.20;;;19.70;55.10;;;;;;6243693;28;20025;-71
2022/12/02 12:17:38;;;;;;;9.95;3.97;;;19.70;55.10;;;;;;6247289;28;20378;-71
2022/12/02 12:20:42;;;;;;;5.55;4.13;;;19.60;55.10;;;;;;6264257;28;20025;-72
2022/12/02 12:23:44;;;;;;;11.83;4.73;;;19.70;55.30;;;;;;6270587;28;20582;-71
2022/12/02 12:26:51;;;;;;;7.65;4.45;;;19.70;55.50;;;;;;6270417;28;20490;-71
2022/12/02 12:29:51;;;;;;;10.00;5.30;;;19.70;55.60;;;;;;6271836;28;20032;-71
2022/12/02 12:32:52;;;;;;;10.45;5.63;;;19.70;55.60;;;;;;6271679;28;20397;-71
2022/12/02 12:35:54;;;;;;;9.25;5.45;;;19.70;55.60;;;;;;6271099;28;20036;-73
2022/12/02 12:38:55;;;;;;;8.80;5.80;;;19.70;55.80;;;;;;6271813;28;20028;-73
2022/12/02 12:41:56;;;;;;;9.65;5.75;;;19.70;55.90;;;;;;6268716;28;20443;-73
2022/12/02 12:44:57;;;;;;;7.32;5.07;;;19.70;55.80;;;;;;6269179;28;20078;-71
2022/12/02 12:47:58;;;;;;;8.60;5.40;;;19.70;55.70;;;;;;6269334;28;20021;-70
2022/12/02 12:50:59;;;;;;;8.50;5.80;;;19.70;55.70;;;;;;6270754;28;20488;-72
2022/12/02 12:53:59;;;;;;;7.93;4.97;;;19.70;55.70;;;;;;6268738;28;20398;-71
2022/12/02 12:57:00;;;;;;;10.30;5.05;;;19.70;55.70;;;;;;6270329;28;20118;-71
2022/12/02 13:00:01;;;;;;;5.95;4.55;;;19.70;55.60;;;;;;6270221;28;20029;-72
2022/12/02 13:03:01;;;;;;;12.52;4.80;;;19.70;55.60;;;;;;6270260;28;20348;-71
2022/12/02 13:06:02;;;;;;;15.20;4.53;;;19.70;55.80;;;;;;6268473;28;20025;-71
2022/12/02 13:09:03;;;;;;;11.13;4.93;;;19.70;55.60;;;;;;6267787;28;20025;-71
2022/12/02 13:12:04;;;;;;;9.07;5.03;;;19.70;55.50;;;;;;6269555;28;20025;-72
2022/12/02 13:15:05;;;;;;;8.75;5.25;;;19.70;55.50;;;;;;6269907;28;20044;-71
2022/12/02 13:18:06;;;;;;;8.48;4.43;;;19.70;55.50;;;;;;6268225;28;20020;-71
2022/12/02 13:21:07;;;;;;;6.82;4.47;;;19.70;55.50;;;;;;6269712;28;20489;-72
2022/12/02 13:24:07;;;;;;;9.55;4.38;;;19.70;55.50;;;;;;6267564;28;20620;-71
2022/12/02 13:27:08;;;;;;;7.57;4.53;;;19.70;55.50;;;;;;6268606;28;20765;-72
2022/12/02 13:30:15;;;;;;;10.23;4.75;;;19.70;55.50;;;;;;6269460;28;20025;-71
2022/12/02 13:33:15;;;;;;;7.30;4.10;;;19.60;55.40;;;;;;6269464;28;20029;-72
2022/12/02 13:36:16;;;;;;;7.28;4.40;;;19.70;55.50;;;;;;6265898;28;20029;-71
2022/12/02 13:39:17;;;;;;;5.88;4.40;;;19.70;55.50;;;;;;6269653;28;20482;-71
2022/12/02 13:42:17;;;;;;;9.55;4.78;;;19.70;55.50;;;;;;6266783;28;20642;-70
2022/12/02 13:45:18;;;;;;;7.53;4.50;;;19.70;55.50;;;;;;6268501;28;20496;-71
2022/12/02 13:48:19;;;;;;;6.03;4.05;;;19.70;55.50;;;;;;6269685;28;20029;-71
2022/12/02 13:51:19;;;;;;;6.05;4.50;;;19.70;55.40;;;;;;6268151;28;20043;-72
2022/12/02 13:54:20;;;;;;;7.15;4.38;;;19.70;55.50;;;;;;6269282;28;20044;-71
2022/12/02 13:57:22;;;;;;;7.80;4.20;;;19.70;55.40;;;;;;6268101;28;20021;-71
2022/12/02 14:00:22;;;;;;;8.02;4.75;;;19.70;55.40;;;;;;6269462;28;20449;-71
2022/12/02 14:03:23;;;;;;;7.57;4.50;;;19.70;55.40;;;;;;6269117;28;20021;-70
2022/12/02 14:06:24;;;;;;;7.03;4.70;;;19.70;55.40;;;;;;6269543;28;20076;-70
2022/12/02 14:09:24;;;;;;;6.07;3.97;;;19.70;55.30;;;;;;6268014;28;20512;-70
2022/12/02 14:12:27;;;;;;;6.05;4.28;;;19.70;55.30;;;;;;6268865;28;20394;-71
2022/12/02 14:15:28;;;;;;;7.30;4.78;;;19.70;55.40;;;;;;6268572;28;20272;-70
2022/12/02 14:18:29;;;;;;;5.95;4.10;;;19.70;55.40;;;;;;6270351;28;20021;-70
2022/12/02 14:21:29;;;;;;;7.22;4.28;;;19.70;55.30;;;;;;6272951;28;20497;-70
2022/12/02 14:24:30;;;;;;;7.45;4.97;;;19.70;55.30;;;;;;6272936;28;20363;-70
2022/12/02 14:27:31;;;;;;;6.65;4.05;;;19.70;55.30;;;;;;6272058;28;20025;-70
2022/12/02 14:30:32;;;;;;;6.78;4.35;;;19.70;55.30;;;;;;6270294;28;20057;-70
2022/12/02 14:33:32;;;;;;;7.40;4.63;;;19.70;55.30;;;;;;6272369;28;20420;-70
2022/12/02 14:36:33;;;;;;;8.68;4.70;;;19.70;55.30;;;;;;6273122;28;20025;-70
2022/12/02 14:39:34;;;;;;;5.60;4.28;;;19.70;55.30;;;;;;6273281;28;20025;-71
2022/12/02 14:42:35;;;;;;;6.10;4.45;;;19.60;55.20;;;;;;6272688;28;20111;-70
2022/12/02 14:45:36;;;;;;;5.93;3.97;;;19.70;55.30;;;;;;6271555;28;20048;-70
2022/12/02 14:48:36;;;;;;;7.03;4.35;;;19.70;55.30;;;;;;6273333;28;20382;-70
2022/12/02 14:51:37;;;;;;;7.88;4.85;;;19.70;55.30;;;;;;6272833;28;20105;-70
2022/12/02 14:54:38;;;;;;;6.65;4.63;;;19.70;55.20;;;;;;6270938;28;20128;-70
2022/12/02 14:57:39;;;;;;;7.40;4.80;;;19.70;55.20;;;;;;6272850;28;20367;-70
2022/12/02 15:00:39;;;;;;;7.82;4.57;;;19.70;55.20;;;;;;6267468;28;20074;-70
2022/12/02 15:03:40;;;;;;;6.32;4.57;;;19.70;55.20;;;;;;6271248;28;20029;-70
2022/12/02 15:06:43;;;;;;;5.55;4.18;;;19.70;55.20;;;;;;6269025;28;20067;-70
2022/12/02 15:09:44;;;;;;;7.20;4.78;;;19.70;55.30;;;;;;6263801;28;20013;-70
2022/12/02 15:12:44;;;;;;;6.70;4.57;;;19.70;55.20;;;;;;6269519;28;20028;-69
2022/12/02 15:15:45;;;;;;;7.10;4.57;;;19.60;55.20;;;;;;6270553;28;20541;-70
2022/12/02 15:18:46;;;;;;;7.95;4.70;;;19.70;55.20;;;;;;6270024;28;20044;-70
2022/12/02 15:21:46;;;;;;;6.80;4.25;;;19.70;55.20;;;;;;6270503;28;20025;-70
2022/12/02 15:24:48;;;;;;;7.05;4.60;;;19.70;55.20;;;;;;6270093;28;20029;-70
2022/12/02 15:27:49;;;;;;;6.35;4.47;;;19.70;55.20;;;;;;6269790;28;20032;-69
2022/12/02 15:30:50;;;;;;;8.23;4.75;;;19.70;55.20;;;;;;6287981;28;20073;-71
2022/12/02 15:33:51;;;;;;;6.97;4.82;;;19.60;55.10;;;;;;6270185;28;20040;-70
2022/12/02 15:36:52;;;;;;;5.57;4.28;;;19.60;55.20;;;;;;6277579;28;20025;-70
2022/12/02 15:39:53;;;;;;;6.57;4.85;;;19.70;55.20;;;;;;6285281;28;20059;-70
2022/12/02 15:42:54;;;;;;;6.97;4.55;;;19.70;55.20;;;;;;6267861;28;20056;-70
2022/12/02 15:45:54;;;;;;;6.30;4.30;;;19.60;55.10;;;;;;6269442;28;20508;-70
2022/12/02 15:48:55;;;;;;;9.15;4.85;;;19.70;55.20;;;;;;6268932;28;20129;-70
2022/12/02 15:51:56;;;;;;;6.00;4.20;;;19.60;55.80;;;;;;6268447;28;20396;-70
2022/12/02 15:54:57;;;;;;;6.72;4.65;;;19.70;55.20;;;;;;6271803;28;20102;-70
2022/12/02 15:57:57;;;;;;;5.88;4.53;;;19.60;55.20;;;;;;6293873;28;20029;-70
2022/12/02 16:00:58;;;;;;;5.88;4.47;;;19.60;55.20;;;;;;6296187;28;20098;-71
2022/12/02 16:03:59;;;;;;;6.55;4.80;;;19.60;55.20;;;;;;6295871;28;20612;-71
2022/12/02 16:06:59;;;;;;;7.88;5.40;;;19.60;55.20;;;;;;6290687;28;20087;-69